createdAt,value
2019-06-26T00:02:08.062Z,9.68
2019-06-26T00:08:53.007Z,9.68
2019-06-26T00:15:39.395Z,9.63
2019-06-26T00:22:24.258Z,9.95
2019-06-26T00:29:09.140Z,11.05
2019-06-26T00:35:54.074Z,10.82
2019-06-26T00:42:39.110Z,10.58
2019-06-26T00:49:23.978Z,9.28
2019-06-26T00:56:08.852Z,10.20
2019-06-26T01:02:53.718Z,9.45
2019-06-26T01:09:38.662Z,10.58
2019-06-26T01:16:23.673Z,10.93
2019-06-26T01:23:08.553Z,11.35
2019-06-26T01:29:54.562Z,10.25
2019-06-26T01:36:39.807Z,10.43
2019-06-26T01:43:24.807Z,11.73
2019-06-26T01:50:10.185Z,11.18
2019-06-26T01:56:55.056Z,11.12
2019-06-26T02:03:39.932Z,10.13
2019-06-26T02:10:25.101Z,11.05
2019-06-26T02:17:10.042Z,10.95
2019-06-26T02:23:54.982Z,10.40
2019-06-26T02:30:39.852Z,11.03
2019-06-26T02:37:24.728Z,11.25
2019-06-26T02:44:09.675Z,12.47
2019-06-26T02:50:54.546Z,12.05
2019-06-26T02:57:39.494Z,12.67
2019-06-26T03:04:24.436Z,13.70
2019-06-26T03:11:09.306Z,14.30
2019-06-26T03:17:55.839Z,14.25
2019-06-26T03:24:40.930Z,14.35
2019-06-26T03:31:25.880Z,14.60
2019-06-26T03:38:10.828Z,13.00
2019-06-26T03:44:55.690Z,13.85
2019-06-26T03:51:40.695Z,13.10
2019-06-26T03:58:25.595Z,13.80
2019-06-26T04:05:11.037Z,13.45
2019-06-26T04:11:55.989Z,14.58
2019-06-26T04:18:40.986Z,13.60
2019-06-26T04:25:25.854Z,12.73
2019-06-26T04:32:10.811Z,11.97
2019-06-26T04:38:55.698Z,12.47
2019-06-26T04:45:57.157Z,12.33
2019-06-26T04:52:28.575Z,12.00
2019-06-26T04:59:13.434Z,11.78
2019-06-26T05:05:58.322Z,11.18
2019-06-26T05:12:43.198Z,11.25
2019-06-26T05:19:28.222Z,10.68
2019-06-26T05:26:13.105Z,12.03
2019-06-26T05:32:58.036Z,10.60
2019-06-26T05:39:42.917Z,10.95
2019-06-26T05:46:31.438Z,11.15
2019-06-26T05:53:14.573Z,11.33
2019-06-26T06:00:00.115Z,9.73
2019-06-26T06:06:45.224Z,10.53
2019-06-26T06:13:30.111Z,10.40
2019-06-26T06:20:16.959Z,9.13
2019-06-26T06:27:01.905Z,8.48
2019-06-26T06:33:46.846Z,7.87
2019-06-26T06:40:31.858Z,7.67
2019-06-26T06:47:17.027Z,8.10
2019-06-26T06:54:01.986Z,8.38
2019-06-26T07:00:46.870Z,7.70
2019-06-26T07:07:31.801Z,8.33
2019-06-26T07:14:16.763Z,7.58
2019-06-26T07:21:02.788Z,7.65
2019-06-26T07:27:48.284Z,7.83
2019-06-26T07:34:33.587Z,8.15
2019-06-26T07:41:18.451Z,7.37
2019-06-26T07:48:03.347Z,7.47
2019-06-26T07:54:48.245Z,8.13
2019-06-26T08:01:33.111Z,7.87
2019-06-26T08:08:18.116Z,8.53
2019-06-26T08:15:03.526Z,9.15
2019-06-26T08:21:48.471Z,8.98
2019-06-26T08:28:33.594Z,9.08
2019-06-26T08:35:18.643Z,7.75
2019-06-26T08:42:03.553Z,8.08
2019-06-26T08:48:51.759Z,8.68
2019-06-26T08:55:35.115Z,7.45
2019-06-26T09:02:20.057Z,8.00
2019-06-26T09:09:07.480Z,7.75
2019-06-26T09:15:52.540Z,7.47
2019-06-26T09:22:38.552Z,7.62
2019-06-26T09:29:24.139Z,7.58
2019-06-26T09:36:10.323Z,8.00
2019-06-26T09:42:56.018Z,9.95
2019-06-26T09:49:40.958Z,8.33
2019-06-26T09:56:25.923Z,8.73
2019-06-26T10:03:11.162Z,9.45
2019-06-26T10:09:56.131Z,10.20
2019-06-26T10:16:41.015Z,9.58
2019-06-26T10:23:26.067Z,10.87
2019-06-26T10:30:12.198Z,9.73
2019-06-26T10:36:57.145Z,10.10
2019-06-26T10:43:42.087Z,9.20
2019-06-26T10:50:27.019Z,9.08
2019-06-26T10:57:11.878Z,9.13
2019-06-26T11:03:57.058Z,8.80
2019-06-26T11:10:41.935Z,8.23
2019-06-26T11:17:26.934Z,8.45
2019-06-26T11:24:11.941Z,7.58
2019-06-26T11:30:56.851Z,6.97
2019-06-26T11:37:41.921Z,6.28
2019-06-26T11:44:27.332Z,5.95
2019-06-26T11:51:12.797Z,6.28
2019-06-26T11:57:58.228Z,6.47
2019-06-26T12:04:45.340Z,4.95
2019-06-26T12:11:30.517Z,5.78
2019-06-26T12:18:15.845Z,5.60
2019-06-26T12:25:01.180Z,5.87
2019-06-26T12:31:46.388Z,6.90
2019-06-26T12:38:31.359Z,6.80
2019-06-26T12:45:17.154Z,6.37
2019-06-26T12:52:02.271Z,6.67
2019-06-26T12:58:47.173Z,5.97
2019-06-26T13:05:32.030Z,6.67
2019-06-26T13:12:17.214Z,5.42
2019-06-26T13:19:02.171Z,5.53
2019-06-26T13:25:47.195Z,5.60
2019-06-26T13:32:32.060Z,5.75
2019-06-26T13:39:16.925Z,5.33
2019-06-26T13:46:02.734Z,5.05
2019-06-26T13:52:47.837Z,5.47
2019-06-26T13:59:32.767Z,5.50
2019-06-26T14:06:17.699Z,5.80
2019-06-26T14:13:02.629Z,6.12
2019-06-26T14:19:47.556Z,6.30
2019-06-26T14:26:32.446Z,6.85
2019-06-26T14:33:17.568Z,6.72
2019-06-26T14:40:02.632Z,6.78
2019-06-26T14:46:47.707Z,6.98
2019-06-26T14:53:32.661Z,7.78
2019-06-26T15:00:18.092Z,6.12
2019-06-26T15:07:03.099Z,6.75
2019-06-26T15:13:48.089Z,5.63
2019-06-26T15:20:33.044Z,7.00
2019-06-26T15:27:18.826Z,6.53
2019-06-26T15:34:03.846Z,6.42
2019-06-26T15:40:48.861Z,6.25
2019-06-26T15:47:33.986Z,6.40
2019-06-26T15:54:19.025Z,5.78
2019-06-26T16:01:04.205Z,6.85
2019-06-26T16:07:49.219Z,6.72
2019-06-26T16:14:34.490Z,5.58
2019-06-26T16:21:19.443Z,6.25
2019-06-26T16:28:06.001Z,7.05
2019-06-26T16:34:51.911Z,6.05
2019-06-26T16:41:37.269Z,6.28
2019-06-26T16:48:22.215Z,6.72
2019-06-26T16:55:07.528Z,6.08
2019-06-26T17:01:52.735Z,5.87
2019-06-26T17:08:37.680Z,6.00
2019-06-26T17:15:22.685Z,5.97
2019-06-26T17:22:07.636Z,5.87
2019-06-26T17:28:52.860Z,5.92
2019-06-26T17:35:37.739Z,5.95
2019-06-26T17:42:22.680Z,6.25
2019-06-26T17:49:07.695Z,5.78
2019-06-26T17:55:52.571Z,6.05
2019-06-26T18:02:37.454Z,5.87
2019-06-26T18:09:22.315Z,6.10
2019-06-26T18:16:07.188Z,6.53
2019-06-26T18:23:06.040Z,5.63
2019-06-26T18:29:38.766Z,6.25
2019-06-26T18:36:24.016Z,6.62
2019-06-26T18:43:08.928Z,6.72
2019-06-26T18:49:54.091Z,6.65
2019-06-26T18:56:39.381Z,7.00
2019-06-26T19:03:24.725Z,7.40
2019-06-26T19:10:10.596Z,7.90
2019-06-26T19:16:56.030Z,8.63
2019-06-26T19:23:41.039Z,8.15
2019-06-26T19:30:26.139Z,8.53
2019-06-26T19:37:11.241Z,7.55
2019-06-26T19:43:56.223Z,7.78
2019-06-26T19:50:43.915Z,8.50
2019-06-26T19:57:29.283Z,7.80
2019-06-26T20:04:14.383Z,8.65
2019-06-26T20:10:59.343Z,8.75
2019-06-26T20:17:44.419Z,9.03
2019-06-26T20:24:42.808Z,8.67
2019-06-26T20:31:16.305Z,8.85
2019-06-26T20:38:01.209Z,9.30
2019-06-26T20:44:46.416Z,8.85
2019-06-26T20:51:31.567Z,9.55
2019-06-26T20:58:16.507Z,9.38
2019-06-26T21:05:01.471Z,8.98
2019-06-26T21:11:49.706Z,10.00
2019-06-26T21:18:38.060Z,10.10
2019-06-26T21:25:22.076Z,10.38
2019-06-26T21:32:07.839Z,11.28
2019-06-26T21:38:53.142Z,11.75
2019-06-26T21:45:38.059Z,11.97
2019-06-26T21:52:22.931Z,11.97
2019-06-26T21:59:08.343Z,12.40
2019-06-26T22:06:11.664Z,10.70
2019-06-26T22:12:58.352Z,11.93
2019-06-26T22:19:43.657Z,10.68
2019-06-26T22:26:29.315Z,11.40
2019-06-26T22:33:14.399Z,10.88
2019-06-26T22:39:59.504Z,11.50
2019-06-26T22:46:44.384Z,12.25
2019-06-26T22:53:29.264Z,11.65
2019-06-26T23:00:15.524Z,12.05
2019-06-26T23:07:00.706Z,18.50
2019-06-26T23:13:46.195Z,12.95
2019-06-26T23:20:31.063Z,13.38
2019-06-26T23:27:16.010Z,15.23
2019-06-26T23:34:03.206Z,13.35
2019-06-26T23:40:48.318Z,11.53
2019-06-26T23:47:33.255Z,13.65
2019-06-26T23:54:18.134Z,13.85
